Disclaimer

Please do not use the information listed here in-flight or in-navigation, as they are not provided to us by the airports but are provided by volunteers, so they might be outdated.

Search


Regions


Airport information page

Radio informations:
Tower (TWR) - 118.1 MHz
COWBOY OPS - 133.825 MHz
Ground (GND) - 121.9 MHz
DEP - 125.5 MHz
Clearance delivery - 121.8 MHz
ARR - 119.2 MHz
Approach (APP) - 135.7 MHz
BRICKWALL - 120.0 MHz

Airport informations:
Latitude: 35° 10' 46.30" N
Longitude: 128° 56' 17.60" E
Elevation: 6 feet - 2 meters
Operating hours: N/A
Operating agency: Military-civil joint use airport
Timezone: UTC+9
Fuel: Jet A1+, Jet A1 with icing inhibitor.

Runway information:
18R/36L - 10499 x 197 feet< - >3200 x 60 meters
18L/36R - 9007 x 150 feet< - >2745 x 46 meters

Recent METARs:
RKPK 211800Z 31006KT CAVOK 08/02 Q1020
RKPK 211900Z 32011KT CAVOK 08/02 Q1020
RKPK 211900Z 32011KT CAVOK 08/02 Q1020

Airport on the map: